Time;durP1;ratioP1;P1;durP2;ratioP2;P2;SDS_P1;SDS_P2;PMS_P1;PMS_P2;Temp;Humidity;BMP_temperature;BMP_pressure;BME280_temperature;BME280_humidity;BME280_pressure;Samples;Min_cycle;Max_cycle;Signal;HPM_P1;HPM_P2
2021/09/01 00:00:55;;;;;;;;;;;15.70;90.30;;;;;;6268088;22;20318;-90
2021/09/01 00:03:21;;;;;;;;;;;15.80;90.50;;;;;;6241209;22;20318;-90
2021/09/01 00:05:47;;;;;;;;;;;15.70;90.20;;;;;;6268732;22;19918;-90
2021/09/01 00:08:12;;;;;;;;;;;15.70;90.40;;;;;;6269608;22;20641;-90
2021/09/01 00:10:38;;;;;;;;;;;15.60;90.80;;;;;;6268843;22;19926;-91
2021/09/01 00:13:03;;;;;;;;;;;15.70;90.30;;;;;;6269262;22;19949;-90
2021/09/01 00:15:29;;;;;;;;;;;15.70;90.50;;;;;;6268438;22;19903;-90
2021/09/01 00:17:54;;;;;;;;;;;15.60;91.00;;;;;;6241221;22;19910;-90
2021/09/01 00:20:20;;;;;;;;;;;15.40;94.70;;;;;;6268895;22;20416;-91
2021/09/01 00:22:46;;;;;;;;;;;15.60;91.30;;;;;;6268996;22;19903;-90
2021/09/01 00:25:12;;;;;;;;;;;15.60;91.20;;;;;;6268767;22;19988;-91
2021/09/01 00:27:37;;;;;;;;;;;15.40;92.10;;;;;;6268760;22;19907;-91
2021/09/01 00:30:04;;;;;;;;;;;15.30;92.20;;;;;;6240553;22;20682;-91
2021/09/01 00:32:30;;;;;;;;;;;15.40;91.90;;;;;;6268185;22;19981;-91
2021/09/01 00:34:55;;;;;;;;;;;15.30;92.10;;;;;;6268122;22;19946;-90
2021/09/01 00:37:21;;;;;;;;;;;15.30;92.50;;;;;;6268692;22;19907;-91
2021/09/01 00:39:46;;;;;;;;;;;15.20;92.80;;;;;;6267883;22;19903;-92
2021/09/01 00:42:12;;;;;;;;;;;15.30;92.50;;;;;;6268474;22;19910;-90
2021/09/01 00:44:38;;;;;;;;;;;15.30;92.70;;;;;;6268476;22;19911;-90
2021/09/01 00:47:07;;;;;;;;;;;15.40;92.60;;;;;;6240844;22;19903;-89
2021/09/01 00:49:32;;;;;;;;;;;15.50;92.30;;;;;;6239358;22;19903;-88
2021/09/01 00:51:59;;;;;;;;;;;15.40;92.40;;;;;;6267743;22;20175;-89
2021/09/01 00:54:26;;;;;;;;;;;15.20;93.10;;;;;;6266784;22;19903;-90
2021/09/01 00:56:52;;;;;;;;;;;15.30;93.10;;;;;;6267330;22;19990;-89
2021/09/01 00:59:19;;;;;;;;;;;15.30;92.90;;;;;;6265983;22;19915;-89
2021/09/01 01:01:45;;;;;;;;;;;15.30;93.20;;;;;;6267550;22;20295;-89
2021/09/01 01:04:10;;;;;;;;;;;15.40;92.80;;;;;;6266954;22;19911;-88
2021/09/01 01:06:36;;;;;;;;;;;15.30;92.90;;;;;;6267767;22;19903;-89
2021/09/01 01:09:02;;;;;;;;;;;15.20;93.30;;;;;;6267255;22;19907;-89
2021/09/01 01:11:27;;;;;;;;;;;15.20;93.50;;;;;;6268172;22;19922;-90
2021/09/01 01:13:53;;;;;;;;;;;15.20;93.60;;;;;;6268416;22;20253;-90
2021/09/01 01:16:20;;;;;;;;;;;15.10;93.90;;;;;;6268006;22;20348;-91
2021/09/01 01:18:49;;;;;;;;;;;15.00;93.90;;;;;;6267069;22;20249;-90
2021/09/01 01:21:16;;;;;;;;;;;14.90;94.30;;;;;;6267941;22;19937;-90
2021/09/01 01:23:42;;;;;;;;;;;14.90;94.10;;;;;;6268132;22;19914;-90
2021/09/01 01:26:08;;;;;;;;;;;14.90;94.30;;;;;;6268382;22;19904;-89
2021/09/01 01:28:33;;;;;;;;;;;15.00;94.30;;;;;;6267438;22;20329;-90
2021/09/01 01:30:59;;;;;;;;;;;15.00;94.30;;;;;;6268161;22;19929;-89
2021/09/01 01:33:25;;;;;;;;;;;14.90;94.60;;;;;;6268659;22;20373;-91
2021/09/01 01:35:50;;;;;;;;;;;14.80;94.70;;;;;;6268439;22;19938;-90
2021/09/01 01:38:17;;;;;;;;;;;14.80;99.90;;;;;;6267673;22;20601;-90
2021/09/01 01:40:43;;;;;;;;;;;14.60;95.30;;;;;;6267253;22;19903;-90
2021/09/01 01:43:09;;;;;;;;;;;14.80;95.10;;;;;;6268224;22;19906;-91
2021/09/01 01:45:36;;;;;;;;;;;14.70;95.80;;;;;;6270081;22;20245;-90
2021/09/01 01:48:02;;;;;;;;;;;14.50;95.90;;;;;;6270620;22;19903;-88
2021/09/01 01:50:28;;;;;;;;;;;14.60;96.10;;;;;;6242554;22;19974;-90
2021/09/01 01:52:54;;;;;;;;;;;14.30;96.10;;;;;;6269243;22;19907;-91
2021/09/01 01:55:19;;;;;;;;;;;14.30;96.90;;;;;;6269149;22;19929;-88
2021/09/01 01:57:45;;;;;;;;;;;14.20;97.00;;;;;;6268948;22;19903;-90
2021/09/01 02:00:11;;;;;;;;;;;14.30;97.00;;;;;;6269216;22;19903;-90
2021/09/01 02:02:37;;;;;;;;;;;14.40;96.70;;;;;;6269402;22;19910;-90
2021/09/01 02:05:02;;;;;;;;;;;14.50;96.90;;;;;;6270118;22;20440;-88
2021/09/01 02:07:28;;;;;;;;;;;14.60;96.60;;;;;;6241791;22;19899;-89
2021/09/01 02:09:54;;;;;;;;;;;14.70;98.70;;;;;;6269363;22;20432;-88
2021/09/01 02:12:20;;;;;;;;;;;14.50;96.70;;;;;;6241663;22;19972;-89
2021/09/01 02:14:45;;;;;;;;;;;14.40;96.80;;;;;;6269904;22;19982;-90
2021/09/01 02:17:11;;;;;;;;;;;14.50;96.80;;;;;;6268046;22;19930;-90
2021/09/01 02:19:36;;;;;;;;;;;14.80;96.20;;;;;;6269304;22;19903;-89
2021/09/01 02:22:02;;;;;;;;;;;14.70;96.10;;;;;;6269893;22;19907;-88
2021/09/01 02:24:28;;;;;;;;;;;14.50;96.80;;;;;;6269633;22;19915;-91
2021/09/01 02:26:53;;;;;;;;;;;14.60;96.70;;;;;;6268687;22;19910;-88
2021/09/01 02:29:19;;;;;;;;;;;14.70;96.80;;;;;;6268381;22;19903;-88
2021/09/01 02:31:44;;;;;;;;;;;14.60;96.90;;;;;;6240569;22;19911;-87
2021/09/01 02:34:10;;;;;;;;;;;14.60;96.90;;;;;;6267265;22;20378;-87
2021/09/01 02:36:36;;;;;;;;;;;14.60;99.00;;;;;;6267571;22;19903;-89
2021/09/01 02:39:01;;;;;;;;;;;14.50;97.00;;;;;;6267454;22;19908;-88
2021/09/01 02:41:27;;;;;;;;;;;14.50;97.40;;;;;;6267498;22;19973;-88
2021/09/01 02:43:52;;;;;;;;;;;14.50;97.50;;;;;;6269020;22;19911;-89
2021/09/01 02:46:18;;;;;;;;;;;14.20;98.00;;;;;;6268639;22;19907;-89
2021/09/01 02:48:45;;;;;;;;;;;14.30;98.10;;;;;;6269577;22;19949;-89
2021/09/01 02:51:11;;;;;;;;;;;14.20;98.30;;;;;;6269277;22;19907;-89
2021/09/01 02:53:36;;;;;;;;;;;14.40;98.00;;;;;;6269668;22;19900;-90
2021/09/01 02:56:02;;;;;;;;;;;14.20;98.30;;;;;;6269837;22;20067;-90
2021/09/01 02:58:27;;;;;;;;;;;14.20;98.50;;;;;;6268875;22;19903;-90
2021/09/01 03:00:53;;;;;;;;;;;14.10;99.00;;;;;;6269229;22;19918;-89
2021/09/01 03:03:18;;;;;;;;;;;14.00;99.10;;;;;;6269851;22;20006;-90
2021/09/01 03:05:44;;;;;;;;;;;14.00;99.50;;;;;;6242716;22;20464;-90
2021/09/01 03:08:10;;;;;;;;;;;14.00;99.70;;;;;;6270368;22;19904;-89
2021/09/01 03:10:35;;;;;;;;;;;13.90;99.80;;;;;;6268799;22;19934;-89
2021/09/01 03:13:01;;;;;;;;;;;13.90;99.90;;;;;;6270627;22;19905;-89
2021/09/01 03:15:26;;;;;;;;;;;13.90;99.80;;;;;;6242165;22;19914;-89
2021/09/01 03:17:52;;;;;;;;;;;13.90;99.60;;;;;;6269569;22;19914;-89
2021/09/01 03:20:18;;;;;;;;;;;13.90;99.90;;;;;;6269284;22;19903;-90
2021/09/01 03:22:43;;;;;;;;;;;13.70;99.90;;;;;;6241836;22;20356;-90
2021/09/01 03:25:09;;;;;;;;;;;13.70;99.90;;;;;;6268776;22;20560;-91
2021/09/01 03:27:34;;;;;;;;;;;13.50;99.90;;;;;;6241811;22;19978;-89
2021/09/01 03:30:00;;;;;;;;;;;13.50;99.90;;;;;;6268969;22;20986;-89
2021/09/01 03:32:25;;;;;;;;;;;13.70;99.90;;;;;;6241850;22;19899;-90
2021/09/01 03:34:51;;;;;;;;;;;13.70;99.90;;;;;;6269595;22;19931;-89
2021/09/01 03:37:16;;;;;;;;;;;13.80;99.90;;;;;;6269645;22;19900;-89
2021/09/01 03:39:42;;;;;;;;;;;13.70;99.90;;;;;;6269938;22;19903;-89
2021/09/01 03:42:08;;;;;;;;;;;13.80;99.90;;;;;;6243063;22;19974;-91
2021/09/01 03:44:33;;;;;;;;;;;13.70;99.90;;;;;;6268453;22;19911;-90
2021/09/01 03:46:59;;;;;;;;;;;13.70;99.90;;;;;;6268941;22;19910;-89
2021/09/01 03:49:25;;;;;;;;;;;13.70;99.90;;;;;;6270159;22;19926;-91
2021/09/01 03:51:50;;;;;;;;;;;13.80;99.90;;;;;;6271945;22;19946;-90
2021/09/01 03:54:16;;;;;;;;;;;13.70;99.90;;;;;;6267833;22;19899;-89
2021/09/01 03:56:42;;;;;;;;;;;13.70;99.90;;;;;;6268615;22;19906;-89
2021/09/01 03:59:07;;;;;;;;;;;13.70;99.90;;;;;;6267648;22;19907;-89
2021/09/01 04:01:34;;;;;;;;;;;13.60;99.90;;;;;;6268186;22;20392;-90
2021/09/01 04:04:00;;;;;;;;;;;13.50;99.90;;;;;;6240738;22;20413;-88
2021/09/01 04:06:26;;;;;;;;;;;13.40;99.90;;;;;;6269837;22;19904;-88
2021/09/01 04:08:51;;;;;;;;;;;13.30;99.90;;;;;;6268731;22;19980;-90
2021/09/01 04:11:17;;;;;;;;;;;13.50;99.90;;;;;;6270427;22;19999;-90
2021/09/01 04:13:42;;;;;;;;;;;13.50;99.90;;;;;;6268372;22;19951;-89
2021/09/01 04:16:08;;;;;;;;;;;13.40;99.90;;;;;;6268130;22;20406;-90
2021/09/01 04:18:34;;;;;;;;;;;13.40;99.90;;;;;;6268211;22;19908;-90
2021/09/01 04:20:59;;;;;;;;;;;13.40;99.90;;;;;;6267963;22;20518;-89
2021/09/01 04:23:25;;;;;;;;;;;13.50;99.90;;;;;;6240176;22;19903;-90
2021/09/01 04:25:50;;;;;;;;;;;13.40;99.90;;;;;;6267829;22;19915;-88
2021/09/01 04:28:16;;;;;;;;;;;13.30;99.90;;;;;;6267950;22;19903;-90
2021/09/01 04:30:41;;;;;;;;;;;13.20;99.90;;;;;;6268198;22;19903;-89
2021/09/01 04:33:07;;;;;;;;;;;13.20;99.90;;;;;;6268699;22;19904;-91
2021/09/01 04:35:32;;;;;;;;;;;13.10;99.90;;;;;;6270414;22;20292;-87
2021/09/01 04:37:58;;;;;;;;;;;13.10;99.90;;;;;;6267886;22;19907;-90
2021/09/01 04:40:23;;;;;;;;;;;13.00;99.90;;;;;;6267358;22;19910;-89
2021/09/01 04:42:49;;;;;;;;;;;12.80;99.90;;;;;;6239988;22;19907;-89
2021/09/01 04:45:14;;;;;;;;;;;12.90;99.90;;;;;;6240987;22;20589;-90
2021/09/01 04:47:40;;;;;;;;;;;12.90;99.90;;;;;;6241708;22;19903;-90
2021/09/01 04:50:06;;;;;;;;;;;12.90;99.90;;;;;;6240375;22;19978;-89
2021/09/01 04:52:31;;;;;;;;;;;12.90;99.90;;;;;;6267726;22;19982;-89
2021/09/01 04:54:58;;;;;;;;;;;12.90;99.90;;;;;;6240591;22;19906;-89
2021/09/01 04:57:23;;;;;;;;;;;12.90;99.90;;;;;;6269017;22;19903;-89
2021/09/01 04:59:49;;;;;;;;;;;12.80;99.90;;;;;;6267529;22;20337;-89
2021/09/01 05:02:14;;;;;;;;;;;13.00;99.90;;;;;;6238957;22;19978;-87
2021/09/01 05:04:40;;;;;;;;;;;12.90;99.90;;;;;;6265076;22;20346;-86
2021/09/01 05:07:05;;;;;;;;;;;12.90;99.90;;;;;;6239096;22;19985;-88
2021/09/01 05:09:31;;;;;;;;;;;12.90;99.90;;;;;;6266334;22;19930;-87
2021/09/01 05:11:56;;;;;;;;;;;12.90;99.90;;;;;;6269861;22;20380;-89
2021/09/01 05:14:22;;;;;;;;;;;12.80;99.90;;;;;;6266788;22;19910;-87
2021/09/01 05:16:47;;;;;;;;;;;12.90;99.90;;;;;;6266425;22;19910;-87
2021/09/01 05:19:13;;;;;;;;;;;12.70;99.90;;;;;;6266123;22;19914;-87
2021/09/01 05:21:45;;;;;;;;;;;12.80;99.90;;;;;;6268359;22;20249;-87
2021/09/01 05:24:15;;;;;;;;;;;12.70;99.90;;;;;;6268432;22;20334;-87
2021/09/01 05:26:41;;;;;;;;;;;12.80;99.90;;;;;;6268979;22;19903;-87
2021/09/01 05:29:06;;;;;;;;;;;13.00;99.90;;;;;;6267932;22;19899;-87
2021/09/01 05:31:32;;;;;;;;;;;13.50;99.90;;;;;;6267794;22;19911;-83
2021/09/01 05:34:00;;;;;;;;;;;13.80;99.90;;;;;;6267744;22;19903;-82
2021/09/01 05:36:25;;;;;;;;;;;14.30;99.90;;;;;;6268111;22;19903;-82
2021/09/01 05:38:52;;;;;;;;;;;14.60;99.90;;;;;;6267774;22;19945;-83
2021/09/01 05:41:18;;;;;;;;;;;14.60;99.90;;;;;;6240506;22;20326;-83
2021/09/01 05:43:45;;;;;;;;;;;15.50;99.90;;;;;;6267948;22;19931;-83
2021/09/01 05:46:12;;;;;;;;;;;16.00;99.90;;;;;;6267303;22;19903;-85
2021/09/01 05:48:38;;;;;;;;;;;15.80;99.30;;;;;;6267735;22;19903;-85
2021/09/01 05:51:06;;;;;;;;;;;15.50;99.90;;;;;;6268380;22;19910;-85
2021/09/01 05:53:32;;;;;;;;;;;16.30;98.60;;;;;;6268710;22;19903;-84
2021/09/01 05:56:00;;;;;;;;;;;16.70;97.30;;;;;;6267316;22;19938;-86
2021/09/01 05:58:25;;;;;;;;;;;17.10;96.80;;;;;;6267953;22;19954;-85
2021/09/01 06:00:55;;;;;;;;;;;16.70;97.30;;;;;;6267765;22;19903;-85
2021/09/01 06:03:24;;;;;;;;;;;17.10;96.50;;;;;;6266860;22;19910;-86
2021/09/01 06:05:54;;;;;;;;;;;17.20;95.50;;;;;;6267778;22;19911;-84
2021/09/01 06:08:21;;;;;;;;;;;16.20;97.80;;;;;;6267760;22;19922;-81
2021/09/01 06:10:48;;;;;;;;;;;17.40;95.30;;;;;;6267377;22;19903;-83
2021/09/01 06:13:13;;;;;;;;;;;18.00;93.80;;;;;;6268588;22;20364;-81
2021/09/01 06:15:40;;;;;;;;;;;16.90;95.80;;;;;;6267639;22;19957;-82
2021/09/01 06:18:06;;;;;;;;;;;17.70;94.70;;;;;;6267605;22;20345;-82
2021/09/01 06:20:33;;;;;;;;;;;16.80;94.60;;;;;;6267546;22;20235;-82
2021/09/01 06:23:00;;;;;;;;;;;17.50;94.60;;;;;;6267986;22;20033;-82
2021/09/01 06:25:25;;;;;;;;;;;18.50;92.70;;;;;;6267232;22;20369;-82
2021/09/01 06:27:51;;;;;;;;;;;18.10;92.60;;;;;;6268194;22;19899;-81
2021/09/01 06:30:17;;;;;;;;;;;17.90;92.60;;;;;;6267520;22;20330;-82
2021/09/01 06:32:42;;;;;;;;;;;18.30;92.50;;;;;;6267520;22;19903;-82
2021/09/01 06:35:08;;;;;;;;;;;19.70;90.30;;;;;;6267727;22;20330;-82
2021/09/01 06:37:36;;;;;;;;;;;19.00;88.70;;;;;;6240208;22;20018;-81
2021/09/01 06:40:01;;;;;;;;;;;18.30;90.60;;;;;;6267675;22;19953;-83
2021/09/01 06:42:27;;;;;;;;;;;19.30;89.50;;;;;;6267773;22;20264;-83
2021/09/01 06:44:53;;;;;;;;;;;18.80;89.70;;;;;;6267213;22;19911;-83
2021/09/01 06:47:18;;;;;;;;;;;19.20;89.50;;;;;;6267079;22;19956;-82
2021/09/01 06:49:44;;;;;;;;;;;20.00;85.10;;;;;;6267363;22;20680;-83
2021/09/01 06:52:10;;;;;;;;;;;20.30;83.70;;;;;;6266952;22;20604;-83
2021/09/01 06:54:35;;;;;;;;;;;20.20;83.50;;;;;;6268099;22;19903;-83
2021/09/01 06:57:01;;;;;;;;;;;20.50;82.40;;;;;;6267323;22;20284;-82
2021/09/01 06:59:26;;;;;;;;;;;20.20;85.40;;;;;;6267178;22;19904;-82
2021/09/01 07:01:52;;;;;;;;;;;20.70;80.60;;;;;;6266605;22;19911;-82
2021/09/01 07:04:17;;;;;;;;;;;20.60;82.20;;;;;;6267490;22;20033;-83
2021/09/01 07:06:43;;;;;;;;;;;20.10;80.60;;;;;;6267165;22;19980;-82
2021/09/01 07:09:08;;;;;;;;;;;20.50;81.00;;;;;;6267130;22;20413;-86
2021/09/01 07:11:34;;;;;;;;;;;20.20;81.40;;;;;;6266606;22;19904;-84
2021/09/01 07:13:59;;;;;;;;;;;20.90;77.80;;;;;;6266561;22;19903;-87
2021/09/01 07:16:25;;;;;;;;;;;20.40;79.70;;;;;;6266821;22;19982;-87
2021/09/01 07:18:51;;;;;;;;;;;20.80;78.60;;;;;;6267812;22;19938;-88
2021/09/01 07:21:16;;;;;;;;;;;20.70;79.30;;;;;;6240576;22;19934;-86
2021/09/01 07:23:42;;;;;;;;;;;20.40;79.00;;;;;;6267591;22;20282;-88
2021/09/01 07:26:10;;;;;;;;;;;21.80;72.70;;;;;;6267024;22;19926;-88
2021/09/01 07:28:37;;;;;;;;;;;21.80;75.50;;;;;;6266678;22;19903;-88
2021/09/01 07:31:03;;;;;;;;;;;22.20;72.20;;;;;;6266235;22;19903;-88
2021/09/01 07:33:29;;;;;;;;;;;21.80;74.60;;;;;;6267198;22;19918;-88
2021/09/01 07:35:55;;;;;;;;;;;21.80;74.10;;;;;;6267104;22;19907;-88
2021/09/01 07:38:20;;;;;;;;;;;21.90;72.00;;;;;;6239708;22;19910;-89
2021/09/01 07:40:46;;;;;;;;;;;22.20;69.80;;;;;;6238759;22;20660;-86
2021/09/01 07:43:11;;;;;;;;;;;22.60;68.60;;;;;;6266171;22;19910;-87
2021/09/01 07:45:37;;;;;;;;;;;23.20;66.40;;;;;;6266074;22;20293;-88
2021/09/01 07:48:02;;;;;;;;;;;23.70;64.70;;;;;;6267432;22;20587;-88
2021/09/01 07:50:29;;;;;;;;;;;23.70;62.60;;;;;;6266250;22;19910;-87
2021/09/01 07:52:55;;;;;;;;;;;23.90;62.20;;;;;;6239357;22;19903;-88
2021/09/01 07:55:21;;;;;;;;;;;24.00;62.10;;;;;;6266403;22;19930;-87
2021/09/01 07:57:46;;;;;;;;;;;23.90;61.60;;;;;;6266507;22;20318;-88
2021/09/01 08:00:13;;;;;;;;;;;24.30;58.50;;;;;;6265901;22;19899;-88
2021/09/01 08:02:38;;;;;;;;;;;23.20;61.20;;;;;;6267463;22;19903;-87
2021/09/01 08:05:05;;;;;;;;;;;23.90;58.60;;;;;;6266703;22;19911;-87
2021/09/01 08:07:30;;;;;;;;;;;23.10;62.50;;;;;;6240048;22;19949;-87
2021/09/01 08:09:56;;;;;;;;;;;24.40;57.70;;;;;;6266811;22;19902;-88
2021/09/01 08:12:22;;;;;;;;;;;25.10;57.80;;;;;;6266692;22;19909;-87
2021/09/01 08:14:47;;;;;;;;;;;24.70;55.30;;;;;;6266192;22;19903;-87
2021/09/01 08:17:14;;;;;;;;;;;25.60;53.20;;;;;;6239593;22;19903;-88
2021/09/01 08:19:43;;;;;;;;;;;25.70;54.40;;;;;;6239667;22;19903;-88
2021/09/01 08:22:09;;;;;;;;;;;25.10;55.00;;;;;;6267017;22;20527;-88
2021/09/01 08:24:37;;;;;;;;;;;26.50;48.10;;;;;;6239254;22;20045;-88
2021/09/01 08:27:03;;;;;;;;;;;26.20;50.00;;;;;;6267043;22;19907;-88
2021/09/01 08:29:29;;;;;;;;;;;26.70;49.50;;;;;;6266859;22;19934;-86
2021/09/01 08:31:54;;;;;;;;;;;27.20;43.50;;;;;;6267066;22;20397;-87
2021/09/01 08:34:20;;;;;;;;;;;28.60;39.70;;;;;;6266361;22;19917;-87
2021/09/01 08:36:46;;;;;;;;;;;28.80;38.10;;;;;;6267207;22;19949;-87
2021/09/01 08:39:12;;;;;;;;;;;27.60;40.30;;;;;;6267083;22;19902;-88
2021/09/01 08:41:38;;;;;;;;;;;27.60;40.90;;;;;;6267016;22;19903;-88
2021/09/01 08:44:04;;;;;;;;;;;27.80;38.20;;;;;;6266459;22;19931;-87
2021/09/01 08:46:31;;;;;;;;;;;28.70;38.30;;;;;;6239736;22;19907;-87
2021/09/01 08:48:56;;;;;;;;;;;28.00;37.70;;;;;;6266733;22;20333;-88
2021/09/01 08:51:22;;;;;;;;;;;28.20;34.80;;;;;;6267042;22;19990;-88
2021/09/01 08:53:48;;;;;;;;;;;28.20;36.80;;;;;;6239646;22;19903;-88
2021/09/01 08:56:13;;;;;;;;;;;27.90;34.40;;;;;;6266712;22;19907;-88
2021/09/01 08:58:39;;;;;;;;;;;28.40;34.40;;;;;;6267206;22;19903;-87
2021/09/01 09:01:05;;;;;;;;;;;29.20;32.30;;;;;;6239305;22;19910;-87
2021/09/01 09:03:30;;;;;;;;;;;29.80;29.90;;;;;;6267322;22;19918;-88
2021/09/01 09:06:04;;;;;;;;;;;30.50;26.90;;;;;;6267141;22;20001;-87
2021/09/01 09:08:33;;;;;;;;;;;30.80;27.60;;;;;;6266462;22;19903;-88
2021/09/01 09:10:59;;;;;;;;;;;29.60;29.70;;;;;;6266429;22;19937;-87
2021/09/01 09:13:25;;;;;;;;;;;28.70;32.40;;;;;;6239007;22;19904;-88
2021/09/01 09:16:01;;;;;;;;;;;30.00;27.60;;;;;;6266954;22;19903;-88
2021/09/01 09:18:28;;;;;;;;;;;30.00;26.30;;;;;;6266477;22;19910;-88
2021/09/01 09:21:26;;;;;;;;;;;28.30;29.40;;;;;;6266762;22;19903;-88
2021/09/01 09:23:54;;;;;;;;;;;31.20;26.00;;;;;;6142258;23;19913;-87
2021/09/01 09:26:23;;;;;;;;;;;31.50;24.80;;;;;;6141548;23;20363;-87
2021/09/01 09:29:05;;;;;;;;;;;31.70;25.30;;;;;;6141631;23;19991;-88
2021/09/01 09:31:30;;;;;;;;;;;31.10;23.50;;;;;;6116576;23;20320;-88
2021/09/01 09:34:03;;;;;;;;;;;32.60;21.60;;;;;;6116411;23;19955;-88
2021/09/01 09:36:28;;;;;;;;;;;32.30;18.80;;;;;;6117111;23;19904;-87
2021/09/01 09:38:54;;;;;;;;;;;29.90;25.20;;;;;;6142947;23;19905;-87
2021/09/01 09:41:21;;;;;;;;;;;30.70;23.20;;;;;;6141833;23;19960;-87
2021/09/01 09:43:47;;;;;;;;;;;34.60;19.50;;;;;;6142530;23;19951;-87
2021/09/01 09:46:13;;;;;;;;;;;33.00;15.80;;;;;;6142276;23;19908;-88
2021/09/01 09:48:40;;;;;;;;;;;34.60;16.20;;;;;;6142515;23;20012;-88
2021/09/01 09:51:06;;;;;;;;;;;34.50;13.10;;;;;;6142472;23;19951;-89
2021/09/01 09:53:33;;;;;;;;;;;36.50;14.50;;;;;;6142523;23;19944;-88
2021/09/01 09:56:07;;;;;;;;;;;34.90;9.40;;;;;;6141611;23;20347;-87
2021/09/01 09:58:34;;;;;;;;;;;34.90;11.70;;;;;;6155367;22;19911;-86
2021/09/01 10:01:02;;;;;;;;;;;35.90;9.30;;;;;;6264986;22;19910;-88
2021/09/01 10:03:28;;;;;;;;;;;36.00;9.40;;;;;;6239002;22;19915;-88
2021/09/01 10:05:54;;;;;;;;;;;36.10;13.00;;;;;;6266641;22;20254;-88
2021/09/01 10:08:19;;;;;;;;;;;35.40;11.80;;;;;;6240180;22;19982;-88
2021/09/01 10:10:45;;;;;;;;;;;33.50;9.80;;;;;;6240338;22;19977;-88
2021/09/01 10:13:11;;;;;;;;;;;33.70;15.10;;;;;;6268408;22;19930;-89
2021/09/01 10:15:39;;;;;;;;;;;34.20;13.70;;;;;;6268212;22;19903;-88
2021/09/01 10:18:06;;;;;;;;;;;35.10;7.90;;;;;;6266696;22;19903;-88
2021/09/01 10:20:32;;;;;;;;;;;34.10;13.20;;;;;;6268305;22;19903;-87
2021/09/01 10:23:05;;;;;;;;;;;32.10;11.10;;;;;;6267911;22;19903;-88
2021/09/01 10:25:32;;;;;;;;;;;31.70;12.80;;;;;;6267420;22;19958;-89
2021/09/01 10:28:17;;;;;;;;;;;32.50;16.10;;;;;;6267899;22;20341;-88
2021/09/01 10:31:01;;;;;;;;;;;32.40;24.00;;;;;;6266173;22;20069;-87
2021/09/01 10:33:36;;;;;;;;;;;31.30;18.20;;;;;;6266817;22;20032;-87
2021/09/01 10:36:28;;;;;;;;;;;31.90;17.20;;;;;;6266764;22;19907;-88
2021/09/01 10:38:55;;;;;;;;;;;30.60;22.30;;;;;;6261328;22;19935;-88
2021/09/01 10:41:30;;;;;;;;;;;31.30;21.60;;;;;;6267508;22;19934;-88
2021/09/01 10:44:05;;;;;;;;;;;31.50;23.70;;;;;;6267251;22;20322;-87
2021/09/01 10:46:49;;;;;;;;;;;31.30;22.60;;;;;;6264913;22;19957;-87
2021/09/01 10:49:15;;;;;;;;;;;28.00;27.90;;;;;;6267679;22;19903;-88
2021/09/01 10:51:46;;;;;;;;;;;28.60;27.10;;;;;;6267580;22;20249;-89
2021/09/01 10:54:30;;;;;;;;;;;28.90;25.30;;;;;;6266592;22;20236;-89
2021/09/01 10:56:56;;;;;;;;;;;28.60;27.30;;;;;;6267669;22;19911;-90
2021/09/01 10:59:25;;;;;;;;;;;27.40;27.10;;;;;;6267066;22;19903;-89
2021/09/01 11:02:17;;;;;;;;;;;27.80;28.50;;;;;;6267216;22;19907;-87
2021/09/01 11:04:46;;;;;;;;;;;28.00;28.70;;;;;;6260943;22;19911;-89
2021/09/01 11:07:18;;;;;;;;;;;27.30;29.20;;;;;;6267883;22;19903;-90
2021/09/01 11:09:43;;;;;;;;;;;26.20;30.70;;;;;;6268160;22;20253;-90
2021/09/01 11:12:12;;;;;;;;;;;26.40;32.00;;;;;;6268489;22;19907;-89
2021/09/01 11:14:43;;;;;;;;;;;25.90;33.70;;;;;;6241176;22;20326;-89
2021/09/01 11:17:27;;;;;;;;;;;26.40;32.30;;;;;;6268704;22;19907;-89
2021/09/01 11:19:54;;;;;;;;;;;25.70;33.50;;;;;;6268055;22;19982;-88
2021/09/01 11:22:26;;;;;;;;;;;25.60;32.80;;;;;;6240554;22;19903;-89
2021/09/01 11:24:54;;;;;;;;;;;25.40;34.10;;;;;;6268181;22;20007;-89
2021/09/01 11:27:22;;;;;;;;;;;25.90;34.20;;;;;;6267652;22;19982;-89
2021/09/01 11:29:48;;;;;;;;;;;26.00;33.50;;;;;;6240502;22;19978;-89
2021/09/01 11:32:17;;;;;;;;;;;25.90;33.20;;;;;;6240965;22;19907;-90
2021/09/01 11:34:43;;;;;;;;;;;25.90;35.30;;;;;;6267918;22;19903;-89
2021/09/01 11:37:09;;;;;;;;;;;25.10;35.40;;;;;;6267269;22;20367;-90
2021/09/01 11:39:42;;;;;;;;;;;25.60;35.10;;;;;;6268066;22;19903;-90
2021/09/01 11:42:08;;;;;;;;;;;25.00;36.10;;;;;;6267926;22;19903;-88
2021/09/01 11:44:34;;;;;;;;;;;25.10;36.20;;;;;;6267348;22;19911;-89
2021/09/01 11:46:59;;;;;;;;;;;25.00;36.20;;;;;;6268341;22;19903;-89
2021/09/01 11:49:25;;;;;;;;;;;25.10;35.80;;;;;;6239938;22;19945;-90
2021/09/01 11:51:50;;;;;;;;;;;25.20;35.50;;;;;;6267580;22;19909;-90
2021/09/01 11:54:17;;;;;;;;;;;25.00;37.00;;;;;;6267628;22;19903;-89
2021/09/01 11:56:42;;;;;;;;;;;24.90;37.00;;;;;;6268018;22;20289;-89
2021/09/01 11:59:09;;;;;;;;;;;24.50;37.80;;;;;;6240347;22;19903;-89
2021/09/01 12:01:42;;;;;;;;;;;24.90;37.70;;;;;;6267554;22;19928;-89
2021/09/01 12:04:08;;;;;;;;;;;25.00;37.70;;;;;;6267198;22;20246;-89
2021/09/01 12:06:41;;;;;;;;;;;24.90;36.60;;;;;;6267830;22;19907;-89
2021/09/01 12:09:08;;;;;;;;;;;25.30;37.60;;;;;;6266009;22;19919;-89
2021/09/01 12:11:34;;;;;;;;;;;25.50;35.80;;;;;;6240584;22;20024;-90
2021/09/01 12:14:03;;;;;;;;;;;25.50;35.70;;;;;;6267649;22;20349;-89
2021/09/01 12:16:31;;;;;;;;;;;25.50;35.40;;;;;;6240423;22;20401;-90
2021/09/01 12:18:57;;;;;;;;;;;25.30;35.30;;;;;;6267222;22;20516;-90
2021/09/01 12:21:41;;;;;;;;;;;25.30;36.10;;;;;;6266378;22;20285;-89
2021/09/01 12:24:16;;;;;;;;;;;25.80;36.40;;;;;;6266157;22;20034;-90
2021/09/01 12:26:48;;;;;;;;;;;26.00;35.20;;;;;;6266100;22;19934;-89
2021/09/01 12:29:27;;;;;;;;;;;26.00;35.10;;;;;;6238870;22;19903;-89
2021/09/01 12:31:53;;;;;;;;;;;25.90;35.10;;;;;;6266574;22;20284;-90
2021/09/01 12:34:47;;;;;;;;;;;25.40;36.30;;;;;;6238887;22;20278;-89
2021/09/01 12:37:14;;;;;;;;;;;25.60;37.10;;;;;;6235431;22;20300;-89
2021/09/01 12:39:50;;;;;;;;;;;25.90;35.50;;;;;;6266128;22;19903;-89
2021/09/01 12:42:22;;;;;;;;;;;25.70;35.70;;;;;;6266788;22;19918;-89
2021/09/01 12:44:48;;;;;;;;;;;25.50;35.80;;;;;;6266221;22;19911;-89
2021/09/01 12:47:14;;;;;;;;;;;25.20;36.70;;;;;;6266424;22;19903;-89
2021/09/01 12:49:53;;;;;;;;;;;25.30;36.70;;;;;;6265441;22;19917;-89
2021/09/01 12:52:20;;;;;;;;;;;25.30;36.20;;;;;;6267593;22;20379;-89
2021/09/01 12:54:45;;;;;;;;;;;25.10;36.30;;;;;;6266846;22;19903;-89
2021/09/01 12:57:11;;;;;;;;;;;25.10;36.80;;;;;;6240074;22;19934;-89
2021/09/01 12:59:37;;;;;;;;;;;25.00;36.90;;;;;;6266684;22;19932;-89
2021/09/01 13:02:03;;;;;;;;;;;25.00;36.60;;;;;;6267292;22;19907;-89
2021/09/01 13:04:29;;;;;;;;;;;25.10;36.50;;;;;;6266692;22;19931;-89
2021/09/01 13:06:58;;;;;;;;;;;25.10;36.10;;;;;;6239690;22;19990;-89
2021/09/01 13:09:24;;;;;;;;;;;25.10;37.10;;;;;;6267165;22;20649;-89
2021/09/01 13:11:49;;;;;;;;;;;25.30;36.20;;;;;;6267402;22;19903;-89
2021/09/01 13:14:15;;;;;;;;;;;25.20;35.30;;;;;;6266156;22;19910;-90
2021/09/01 13:16:42;;;;;;;;;;;25.40;37.90;;;;;;6265933;22;20287;-90
2021/09/01 13:19:08;;;;;;;;;;;25.40;35.50;;;;;;6266644;22;19907;-88
2021/09/01 13:21:34;;;;;;;;;;;25.30;36.10;;;;;;6266913;22;20326;-90
2021/09/01 13:23:59;;;;;;;;;;;25.20;36.30;;;;;;6266996;22;19962;-89
2021/09/01 13:26:25;;;;;;;;;;;25.30;35.60;;;;;;6240275;22;19903;-89
2021/09/01 13:28:50;;;;;;;;;;;25.30;36.20;;;;;;6240246;22;19903;-88
2021/09/01 13:31:16;;;;;;;;;;;25.40;34.90;;;;;;6239904;22;19981;-89
2021/09/01 13:33:41;;;;;;;;;;;25.30;35.50;;;;;;6239741;22;20027;-89
2021/09/01 13:36:07;;;;;;;;;;;25.10;35.40;;;;;;6267617;22;19907;-89
2021/09/01 13:38:33;;;;;;;;;;;25.20;35.30;;;;;;6240166;22;19949;-89
2021/09/01 13:40:59;;;;;;;;;;;25.20;35.40;;;;;;6240412;22;20331;-89
2021/09/01 13:43:24;;;;;;;;;;;25.30;35.40;;;;;;6269312;22;19950;-89
2021/09/01 13:45:50;;;;;;;;;;;25.30;35.20;;;;;;6242547;22;19911;-89
2021/09/01 13:48:16;;;;;;;;;;;25.30;35.40;;;;;;6269442;22;20285;-89
2021/09/01 13:50:41;;;;;;;;;;;25.10;35.30;;;;;;6269498;22;20223;-89
2021/09/01 13:53:08;;;;;;;;;;;25.10;34.90;;;;;;6268443;22;19903;-90
2021/09/01 13:55:33;;;;;;;;;;;25.30;35.40;;;;;;6240706;22;20128;-89
2021/09/01 13:58:01;;;;;;;;;;;25.20;35.00;;;;;;6240952;22;19914;-88
2021/09/01 14:00:31;;;;;;;;;;;25.20;35.70;;;;;;6268269;22;19919;-89
2021/09/01 14:02:57;;;;;;;;;;;25.20;35.70;;;;;;6267412;22;19903;-89
2021/09/01 14:05:23;;;;;;;;;;;25.10;34.70;;;;;;6267664;22;19911;-89
2021/09/01 14:07:48;;;;;;;;;;;25.10;35.10;;;;;;6240358;22;19926;-90
2021/09/01 14:10:14;;;;;;;;;;;25.30;35.00;;;;;;6267720;22;20322;-89
2021/09/01 14:12:39;;;;;;;;;;;25.30;35.10;;;;;;6267784;22;19911;-89
2021/09/01 14:15:06;;;;;;;;;;;25.40;34.90;;;;;;6267285;22;19903;-88